sensor_id;sensor_type;location;lat;lon;timestamp;P1;durP1;ratioP1;P2;durP2;ratioP2
26102;SDS011;69760;49.380;8.998;2023-07-30T05:57:46;2.28;;;2.08;;
26102;SDS011;69760;49.380;8.998;2023-07-30T06:00:12;2.42;;;1.80;;
26102;SDS011;69760;49.380;8.998;2023-07-30T06:02:37;2.45;;;1.95;;
26102;SDS011;69760;49.380;8.998;2023-07-30T06:05:03;2.20;;;1.90;;
26102;SDS011;69760;49.380;8.998;2023-07-30T06:07:29;4.35;;;1.70;;
26102;SDS011;69760;49.380;8.998;2023-07-30T06:09:54;2.05;;;1.85;;
26102;SDS011;69760;49.380;8.998;2023-07-30T06:12:20;1.92;;;1.63;;
26102;SDS011;69760;49.380;8.998;2023-07-30T06:14:45;3.17;;;1.95;;
26102;SDS011;69760;49.380;8.998;2023-07-30T06:17:11;4.45;;;2.13;;
26102;SDS011;69760;49.380;8.998;2023-07-30T06:19:37;2.35;;;2.03;;
26102;SDS011;69760;49.380;8.998;2023-07-30T06:22:03;3.28;;;2.10;;
26102;SDS011;69760;49.380;8.998;2023-07-30T06:24:28;2.35;;;2.15;;
26102;SDS011;69760;49.380;8.998;2023-07-30T06:26:54;3.15;;;2.42;;
26102;SDS011;69760;49.380;8.998;2023-07-30T06:29:20;3.00;;;2.10;;
26102;SDS011;69760;49.380;8.998;2023-07-30T06:31:45;2.17;;;1.90;;
26102;SDS011;69760;49.380;8.998;2023-07-30T06:34:11;2.72;;;2.10;;
26102;SDS011;69760;49.380;8.998;2023-07-30T06:36:36;1.92;;;1.75;;
26102;SDS011;69760;49.380;8.998;2023-07-30T06:39:02;2.40;;;2.20;;
26102;SDS011;69760;49.380;8.998;2023-07-30T06:41:28;4.03;;;2.58;;
26102;SDS011;69760;49.380;8.998;2023-07-30T06:43:53;2.72;;;2.28;;
26102;SDS011;69760;49.380;8.998;2023-07-30T06:46:19;3.42;;;2.38;;
26102;SDS011;69760;49.380;8.998;2023-07-30T06:48:44;2.78;;;2.42;;
26102;SDS011;69760;49.380;8.998;2023-07-30T06:51:10;3.60;;;2.45;;
26102;SDS011;69760;49.380;8.998;2023-07-30T06:53:37;2.20;;;2.00;;
26102;SDS011;69760;49.380;8.998;2023-07-30T06:56:03;2.65;;;1.88;;
26102;SDS011;69760;49.380;8.998;2023-07-30T06:58:29;2.55;;;2.15;;
26102;SDS011;69760;49.380;8.998;2023-07-30T07:00:54;2.15;;;1.90;;
26102;SDS011;69760;49.380;8.998;2023-07-30T07:03:20;1.77;;;1.67;;
26102;SDS011;69760;49.380;8.998;2023-07-30T07:05:52;4.78;;;1.70;;
26102;SDS011;69760;49.380;8.998;2023-07-30T07:08:20;4.13;;;2.10;;
26102;SDS011;69760;49.380;8.998;2023-07-30T07:10:46;2.30;;;2.00;;
26102;SDS011;69760;49.380;8.998;2023-07-30T07:13:12;2.88;;;2.40;;
26102;SDS011;69760;49.380;8.998;2023-07-30T07:15:40;2.95;;;2.60;;
26102;SDS011;69760;49.380;8.998;2023-07-30T07:18:06;3.58;;;2.80;;
26102;SDS011;69760;49.380;8.998;2023-07-30T07:20:32;3.20;;;2.85;;
26102;SDS011;69760;49.380;8.998;2023-07-30T07:22:57;4.25;;;3.25;;
26102;SDS011;69760;49.380;8.998;2023-07-30T07:25:23;3.70;;;3.40;;
26102;SDS011;69760;49.380;8.998;2023-07-30T07:27:49;3.60;;;3.30;;
26102;SDS011;69760;49.380;8.998;2023-07-30T07:30:14;4.55;;;3.83;;
26102;SDS011;69760;49.380;8.998;2023-07-30T07:32:40;4.30;;;3.53;;
26102;SDS011;69760;49.380;8.998;2023-07-30T07:35:06;4.90;;;3.42;;
26102;SDS011;69760;49.380;8.998;2023-07-30T07:37:32;6.38;;;3.58;;
26102;SDS011;69760;49.380;8.998;2023-07-30T07:39:58;6.35;;;3.83;;
26102;SDS011;69760;49.380;8.998;2023-07-30T07:42:23;5.47;;;3.63;;
26102;SDS011;69760;49.380;8.998;2023-07-30T07:44:49;6.07;;;3.40;;
26102;SDS011;69760;49.380;8.998;2023-07-30T07:47:15;5.20;;;3.33;;
26102;SDS011;69760;49.380;8.998;2023-07-30T07:49:40;4.40;;;2.83;;
26102;SDS011;69760;49.380;8.998;2023-07-30T07:52:06;3.05;;;1.90;;
26102;SDS011;69760;49.380;8.998;2023-07-30T07:54:32;2.17;;;1.98;;
26102;SDS011;69760;49.380;8.998;2023-07-30T07:56:58;3.80;;;2.15;;
26102;SDS011;69760;49.380;8.998;2023-07-30T07:59:23;2.20;;;2.00;;
26102;SDS011;69760;49.380;8.998;2023-07-30T08:01:49;5.57;;;2.60;;
26102;SDS011;69760;49.380;8.998;2023-07-30T08:04:15;2.60;;;2.40;;
26102;SDS011;69760;49.380;8.998;2023-07-30T08:06:40;3.35;;;2.53;;
26102;SDS011;69760;49.380;8.998;2023-07-30T08:09:06;3.60;;;3.30;;
26102;SDS011;69760;49.380;8.998;2023-07-30T08:11:31;4.65;;;3.35;;
26102;SDS011;69760;49.380;8.998;2023-07-30T08:13:57;3.47;;;3.10;;
26102;SDS011;69760;49.380;8.998;2023-07-30T08:16:22;3.30;;;3.00;;
26102;SDS011;69760;49.380;8.998;2023-07-30T08:18:48;3.50;;;3.20;;
26102;SDS011;69760;49.380;8.998;2023-07-30T08:21:14;4.35;;;2.80;;
26102;SDS011;69760;49.380;8.998;2023-07-30T08:23:42;5.32;;;3.22;;
26102;SDS011;69760;49.380;8.998;2023-07-30T08:26:08;4.07;;;3.10;;
26102;SDS011;69760;49.380;8.998;2023-07-30T08:28:33;3.30;;;3.00;;
26102;SDS011;69760;49.380;8.998;2023-07-30T08:30:59;3.72;;;3.00;;
26102;SDS011;69760;49.380;8.998;2023-07-30T08:33:27;3.45;;;3.15;;
26102;SDS011;69760;49.380;8.998;2023-07-30T08:35:55;4.07;;;3.00;;
26102;SDS011;69760;49.380;8.998;2023-07-30T08:38:22;4.25;;;3.20;;
26102;SDS011;69760;49.380;8.998;2023-07-30T08:40:48;4.55;;;3.25;;
26102;SDS011;69760;49.380;8.998;2023-07-30T08:43:13;4.25;;;3.25;;
26102;SDS011;69760;49.380;8.998;2023-07-30T08:45:39;3.55;;;2.80;;
26102;SDS011;69760;49.380;8.998;2023-07-30T08:48:05;3.38;;;2.95;;
26102;SDS011;69760;49.380;8.998;2023-07-30T08:50:30;5.32;;;3.20;;
26102;SDS011;69760;49.380;8.998;2023-07-30T08:52:57;5.18;;;3.10;;
26102;SDS011;69760;49.380;8.998;2023-07-30T08:55:25;3.30;;;3.00;;
26102;SDS011;69760;49.380;8.998;2023-07-30T08:57:53;5.53;;;3.03;;
26102;SDS011;69760;49.380;8.998;2023-07-30T09:00:20;3.97;;;3.08;;
26102;SDS011;69760;49.380;8.998;2023-07-30T09:02:50;3.45;;;2.75;;
26102;SDS011;69760;49.380;8.998;2023-07-30T09:05:19;3.42;;;2.88;;
26102;SDS011;69760;49.380;8.998;2023-07-30T09:07:45;3.13;;;2.67;;
26102;SDS011;69760;49.380;8.998;2023-07-30T09:10:11;5.00;;;3.10;;
26102;SDS011;69760;49.380;8.998;2023-07-30T09:12:38;3.80;;;2.90;;
26102;SDS011;69760;49.380;8.998;2023-07-30T09:15:04;3.45;;;2.67;;
26102;SDS011;69760;49.380;8.998;2023-07-30T09:17:31;3.47;;;2.65;;
26102;SDS011;69760;49.380;8.998;2023-07-30T09:20:01;4.80;;;2.55;;
26102;SDS011;69760;49.380;8.998;2023-07-30T09:22:29;4.68;;;2.50;;
26102;SDS011;69760;49.380;8.998;2023-07-30T09:24:58;4.10;;;2.50;;
26102;SDS011;69760;49.380;8.998;2023-07-30T09:27:27;3.80;;;2.67;;
26102;SDS011;69760;49.380;8.998;2023-07-30T09:29:54;3.63;;;2.60;;
26102;SDS011;69760;49.380;8.998;2023-07-30T09:32:24;3.67;;;2.58;;
26102;SDS011;69760;49.380;8.998;2023-07-30T09:34:54;3.10;;;2.60;;
26102;SDS011;69760;49.380;8.998;2023-07-30T09:37:20;5.38;;;2.50;;
26102;SDS011;69760;49.380;8.998;2023-07-30T09:39:48;3.53;;;2.35;;
26102;SDS011;69760;49.380;8.998;2023-07-30T09:42:14;3.70;;;2.50;;
26102;SDS011;69760;49.380;8.998;2023-07-30T09:44:40;2.97;;;2.00;;
26102;SDS011;69760;49.380;8.998;2023-07-30T09:47:09;2.65;;;2.20;;
26102;SDS011;69760;49.380;8.998;2023-07-30T09:49:38;3.60;;;2.00;;
26102;SDS011;69760;49.380;8.998;2023-07-30T09:52:04;3.55;;;2.22;;
26102;SDS011;69760;49.380;8.998;2023-07-30T09:54:31;3.75;;;1.70;;
26102;SDS011;69760;49.380;8.998;2023-07-30T09:56:57;3.17;;;2.15;;
26102;SDS011;69760;49.380;8.998;2023-07-30T09:59:23;2.70;;;1.98;;
26102;SDS011;69760;49.380;8.998;2023-07-30T10:01:49;3.28;;;2.10;;
26102;SDS011;69760;49.380;8.998;2023-07-30T10:04:20;6.85;;;2.05;;
26102;SDS011;69760;49.380;8.998;2023-07-30T10:07:00;2.80;;;2.00;;
26102;SDS011;69760;49.380;8.998;2023-07-30T10:09:30;4.43;;;2.10;;
26102;SDS011;69760;49.380;8.998;2023-07-30T10:11:57;4.70;;;2.00;;
26102;SDS011;69760;49.380;8.998;2023-07-30T10:14:24;2.80;;;1.90;;
26102;SDS011;69760;49.380;8.998;2023-07-30T10:16:52;4.22;;;2.40;;
26102;SDS011;69760;49.380;8.998;2023-07-30T10:19:22;3.58;;;2.20;;
26102;SDS011;69760;49.380;8.998;2023-07-30T10:21:53;4.63;;;2.17;;
26102;SDS011;69760;49.380;8.998;2023-07-30T10:24:37;4.18;;;1.90;;
26102;SDS011;69760;49.380;8.998;2023-07-30T10:27:05;3.72;;;1.88;;
26102;SDS011;69760;49.380;8.998;2023-07-30T10:29:31;3.20;;;2.00;;
26102;SDS011;69760;49.380;8.998;2023-07-30T10:32:00;2.75;;;1.90;;
26102;SDS011;69760;49.380;8.998;2023-07-30T10:34:27;3.88;;;2.28;;
26102;SDS011;69760;49.380;8.998;2023-07-30T10:37:17;2.85;;;2.40;;
26102;SDS011;69760;49.380;8.998;2023-07-30T10:39:43;5.15;;;1.98;;
26102;SDS011;69760;49.380;8.998;2023-07-30T10:42:12;2.30;;;2.10;;
26102;SDS011;69760;49.380;8.998;2023-07-30T10:44:39;3.17;;;2.08;;
26102;SDS011;69760;49.380;8.998;2023-07-30T10:47:08;4.43;;;2.55;;
26102;SDS011;69760;49.380;8.998;2023-07-30T10:49:38;3.63;;;2.28;;
26102;SDS011;69760;49.380;8.998;2023-07-30T10:52:05;2.80;;;1.80;;
26102;SDS011;69760;49.380;8.998;2023-07-30T10:54:34;3.38;;;1.70;;
26102;SDS011;69760;49.380;8.998;2023-07-30T10:57:01;3.97;;;1.98;;
26102;SDS011;69760;49.380;8.998;2023-07-30T10:59:32;2.78;;;1.90;;
26102;SDS011;69760;49.380;8.998;2023-07-30T11:02:01;2.83;;;1.95;;
26102;SDS011;69760;49.380;8.998;2023-07-30T11:04:27;3.97;;;1.75;;
26102;SDS011;69760;49.380;8.998;2023-07-30T11:06:53;4.05;;;1.90;;
26102;SDS011;69760;49.380;8.998;2023-07-30T11:09:25;3.40;;;1.60;;
26102;SDS011;69760;49.380;8.998;2023-07-30T11:11:52;4.55;;;1.90;;
26102;SDS011;69760;49.380;8.998;2023-07-30T11:14:20;2.50;;;1.75;;
26102;SDS011;69760;49.380;8.998;2023-07-30T11:16:52;3.78;;;1.88;;
26102;SDS011;69760;49.380;8.998;2023-07-30T11:19:20;1.92;;;1.60;;
26102;SDS011;69760;49.380;8.998;2023-07-30T11:21:46;2.67;;;1.70;;
26102;SDS011;69760;49.380;8.998;2023-07-30T11:34:34;1.50;;;1.30;;
26102;SDS011;69760;49.380;8.998;2023-07-30T11:37:04;3.40;;;1.70;;
26102;SDS011;69760;49.380;8.998;2023-07-30T11:39:30;3.17;;;1.83;;
26102;SDS011;69760;49.380;8.998;2023-07-30T11:41:56;2.17;;;1.58;;
26102;SDS011;69760;49.380;8.998;2023-07-30T11:44:31;2.25;;;1.40;;
26102;SDS011;69760;49.380;8.998;2023-07-30T11:46:58;2.45;;;1.38;;
26102;SDS011;69760;49.380;8.998;2023-07-30T11:49:24;2.22;;;1.40;;
26102;SDS011;69760;49.380;8.998;2023-07-30T11:51:49;3.15;;;1.33;;
26102;SDS011;69760;49.380;8.998;2023-07-30T11:54:20;2.30;;;1.48;;
26102;SDS011;69760;49.380;8.998;2023-07-30T11:56:47;2.70;;;1.27;;
26102;SDS011;69760;49.380;8.998;2023-07-30T11:59:19;2.35;;;1.30;;
26102;SDS011;69760;49.380;8.998;2023-07-30T12:01:46;1.95;;;1.30;;
26102;SDS011;69760;49.380;8.998;2023-07-30T12:04:12;2.78;;;1.55;;
26102;SDS011;69760;49.380;8.998;2023-07-30T12:06:45;1.80;;;1.20;;
26102;SDS011;69760;49.380;8.998;2023-07-30T12:09:16;3.42;;;1.25;;
26102;SDS011;69760;49.380;8.998;2023-07-30T12:11:51;2.95;;;1.38;;
26102;SDS011;69760;49.380;8.998;2023-07-30T12:14:19;4.40;;;1.45;;
26102;SDS011;69760;49.380;8.998;2023-07-30T12:16:50;2.45;;;1.55;;
26102;SDS011;69760;49.380;8.998;2023-07-30T12:19:16;2.13;;;1.40;;
26102;SDS011;69760;49.380;8.998;2023-07-30T12:21:41;2.80;;;1.45;;
26102;SDS011;69760;49.380;8.998;2023-07-30T12:24:07;2.72;;;1.35;;
26102;SDS011;69760;49.380;8.998;2023-07-30T12:26:33;1.60;;;1.38;;
26102;SDS011;69760;49.380;8.998;2023-07-30T12:28:58;2.35;;;1.40;;
26102;SDS011;69760;49.380;8.998;2023-07-30T12:31:24;2.78;;;1.30;;
26102;SDS011;69760;49.380;8.998;2023-07-30T12:33:49;5.22;;;1.45;;
26102;SDS011;69760;49.380;8.998;2023-07-30T12:36:15;3.00;;;1.33;;
26102;SDS011;69760;49.380;8.998;2023-07-30T12:38:41;2.58;;;1.33;;
26102;SDS011;69760;49.380;8.998;2023-07-30T12:41:06;2.38;;;1.20;;
26102;SDS011;69760;49.380;8.998;2023-07-30T12:43:32;4.40;;;1.27;;
26102;SDS011;69760;49.380;8.998;2023-07-30T12:45:57;5.07;;;1.38;;
26102;SDS011;69760;49.380;8.998;2023-07-30T12:48:23;2.65;;;1.30;;
26102;SDS011;69760;49.380;8.998;2023-07-30T12:50:48;5.75;;;1.30;;
26102;SDS011;69760;49.380;8.998;2023-07-30T12:53:14;2.95;;;1.58;;
26102;SDS011;69760;49.380;8.998;2023-07-30T12:55:39;2.78;;;1.30;;
26102;SDS011;69760;49.380;8.998;2023-07-30T12:58:05;3.95;;;1.35;;
26102;SDS011;69760;49.380;8.998;2023-07-30T13:00:31;6.53;;;1.60;;
26102;SDS011;69760;49.380;8.998;2023-07-30T13:03:03;3.85;;;1.67;;
26102;SDS011;69760;49.380;8.998;2023-07-30T13:05:29;4.10;;;1.17;;
26102;SDS011;69760;49.380;8.998;2023-07-30T13:07:54;5.38;;;1.42;;
26102;SDS011;69760;49.380;8.998;2023-07-30T13:10:20;2.50;;;1.30;;
26102;SDS011;69760;49.380;8.998;2023-07-30T13:12:45;4.85;;;1.52;;
26102;SDS011;69760;49.380;8.998;2023-07-30T13:15:11;5.03;;;1.65;;
26102;SDS011;69760;49.380;8.998;2023-07-30T13:17:37;2.97;;;1.30;;
26102;SDS011;69760;49.380;8.998;2023-07-30T13:20:03;2.92;;;1.40;;
26102;SDS011;69760;49.380;8.998;2023-07-30T13:22:30;3.17;;;1.23;;
26102;SDS011;69760;49.380;8.998;2023-07-30T13:24:56;2.60;;;1.60;;
26102;SDS011;69760;49.380;8.998;2023-07-30T13:27:21;3.92;;;1.52;;
26102;SDS011;69760;49.380;8.998;2023-07-30T13:29:47;1.40;;;1.27;;
26102;SDS011;69760;49.380;8.998;2023-07-30T13:32:13;4.53;;;1.40;;
26102;SDS011;69760;49.380;8.998;2023-07-30T13:34:40;3.03;;;1.45;;
26102;SDS011;69760;49.380;8.998;2023-07-30T13:37:05;4.05;;;1.70;;
26102;SDS011;69760;49.380;8.998;2023-07-30T13:39:31;2.63;;;1.38;;
26102;SDS011;69760;49.380;8.998;2023-07-30T13:41:57;3.85;;;1.45;;
26102;SDS011;69760;49.380;8.998;2023-07-30T13:44:22;2.08;;;1.27;;
26102;SDS011;69760;49.380;8.998;2023-07-30T13:46:48;2.75;;;1.48;;
26102;SDS011;69760;49.380;8.998;2023-07-30T13:49:13;4.47;;;1.40;;
26102;SDS011;69760;49.380;8.998;2023-07-30T13:51:39;3.28;;;1.38;;
26102;SDS011;69760;49.380;8.998;2023-07-30T13:54:05;3.35;;;1.25;;
26102;SDS011;69760;49.380;8.998;2023-07-30T13:56:32;3.28;;;1.40;;
26102;SDS011;69760;49.380;8.998;2023-07-30T13:58:58;2.75;;;1.50;;
26102;SDS011;69760;49.380;8.998;2023-07-30T14:01:24;2.80;;;1.40;;
26102;SDS011;69760;49.380;8.998;2023-07-30T14:03:50;5.03;;;1.55;;
26102;SDS011;69760;49.380;8.998;2023-07-30T14:06:15;2.90;;;1.40;;
26102;SDS011;69760;49.380;8.998;2023-07-30T14:08:41;4.05;;;1.40;;
26102;SDS011;69760;49.380;8.998;2023-07-30T14:11:06;4.13;;;1.60;;
26102;SDS011;69760;49.380;8.998;2023-07-30T14:13:32;4.28;;;1.60;;
26102;SDS011;69760;49.380;8.998;2023-07-30T14:15:57;4.93;;;1.55;;
26102;SDS011;69760;49.380;8.998;2023-07-30T14:18:24;4.38;;;1.35;;
26102;SDS011;69760;49.380;8.998;2023-07-30T14:20:50;2.33;;;1.40;;
26102;SDS011;69760;49.380;8.998;2023-07-30T14:23:18;3.30;;;1.40;;
26102;SDS011;69760;49.380;8.998;2023-07-30T14:25:55;3.70;;;1.60;;
26102;SDS011;69760;49.380;8.998;2023-07-30T14:28:22;3.13;;;1.52;;
26102;SDS011;69760;49.380;8.998;2023-07-30T14:30:48;2.72;;;1.30;;
26102;SDS011;69760;49.380;8.998;2023-07-30T14:33:13;3.72;;;1.38;;
26102;SDS011;69760;49.380;8.998;2023-07-30T14:35:39;3.55;;;1.45;;
26102;SDS011;69760;49.380;8.998;2023-07-30T14:38:05;3.58;;;1.35;;
26102;SDS011;69760;49.380;8.998;2023-07-30T14:40:31;3.95;;;1.42;;
26102;SDS011;69760;49.380;8.998;2023-07-30T14:42:57;4.03;;;1.50;;
26102;SDS011;69760;49.380;8.998;2023-07-30T14:45:22;3.17;;;1.40;;
26102;SDS011;69760;49.380;8.998;2023-07-30T14:47:48;2.38;;;1.52;;
26102;SDS011;69760;49.380;8.998;2023-07-30T14:50:13;4.60;;;1.50;;
26102;SDS011;69760;49.380;8.998;2023-07-30T14:52:39;2.63;;;1.50;;
26102;SDS011;69760;49.380;8.998;2023-07-30T14:55:05;3.30;;;1.17;;
26102;SDS011;69760;49.380;8.998;2023-07-30T14:57:31;2.58;;;1.50;;
26102;SDS011;69760;49.380;8.998;2023-07-30T14:59:58;3.25;;;1.40;;
26102;SDS011;69760;49.380;8.998;2023-07-30T15:02:25;3.55;;;1.45;;
26102;SDS011;69760;49.380;8.998;2023-07-30T15:04:52;4.55;;;1.48;;
26102;SDS011;69760;49.380;8.998;2023-07-30T15:07:17;4.03;;;1.27;;
26102;SDS011;69760;49.380;8.998;2023-07-30T15:09:43;4.10;;;1.40;;
26102;SDS011;69760;49.380;8.998;2023-07-30T15:12:10;5.25;;;1.63;;
26102;SDS011;69760;49.380;8.998;2023-07-30T15:14:36;4.10;;;1.35;;
26102;SDS011;69760;49.380;8.998;2023-07-30T15:17:02;2.97;;;1.52;;
26102;SDS011;69760;49.380;8.998;2023-07-30T15:19:28;4.70;;;1.50;;
26102;SDS011;69760;49.380;8.998;2023-07-30T15:21:53;4.78;;;2.10;;
26102;SDS011;69760;49.380;8.998;2023-07-30T15:24:19;5.20;;;1.50;;
26102;SDS011;69760;49.380;8.998;2023-07-30T15:26:44;4.20;;;1.60;;
26102;SDS011;69760;49.380;8.998;2023-07-30T15:29:10;3.45;;;1.40;;
26102;SDS011;69760;49.380;8.998;2023-07-30T15:31:36;3.08;;;1.48;;
26102;SDS011;69760;49.380;8.998;2023-07-30T15:34:01;2.92;;;1.58;;
26102;SDS011;69760;49.380;8.998;2023-07-30T15:36:28;6.47;;;1.88;;
26102;SDS011;69760;49.380;8.998;2023-07-30T15:38:53;2.97;;;1.42;;
26102;SDS011;69760;49.380;8.998;2023-07-30T15:41:19;5.28;;;1.45;;
26102;SDS011;69760;49.380;8.998;2023-07-30T15:43:45;6.22;;;1.67;;
26102;SDS011;69760;49.380;8.998;2023-07-30T15:46:13;3.83;;;1.55;;
26102;SDS011;69760;49.380;8.998;2023-07-30T15:48:40;6.55;;;1.58;;
26102;SDS011;69760;49.380;8.998;2023-07-30T15:51:06;1.60;;;1.20;;
26102;SDS011;69760;49.380;8.998;2023-07-30T15:53:32;3.63;;;1.50;;
26102;SDS011;69760;49.380;8.998;2023-07-30T15:56:01;2.65;;;1.40;;
26102;SDS011;69760;49.380;8.998;2023-07-30T15:58:28;2.90;;;1.33;;
26102;SDS011;69760;49.380;8.998;2023-07-30T16:00:54;3.05;;;1.30;;
26102;SDS011;69760;49.380;8.998;2023-07-30T16:03:20;3.42;;;1.33;;
26102;SDS011;69760;49.380;8.998;2023-07-30T16:05:46;3.80;;;1.48;;
26102;SDS011;69760;49.380;8.998;2023-07-30T16:08:13;4.88;;;1.20;;
26102;SDS011;69760;49.380;8.998;2023-07-30T16:10:38;2.80;;;1.25;;
26102;SDS011;69760;49.380;8.998;2023-07-30T16:13:04;4.50;;;1.30;;
26102;SDS011;69760;49.380;8.998;2023-07-30T16:15:29;5.50;;;1.40;;
26102;SDS011;69760;49.380;8.998;2023-07-30T16:17:55;4.05;;;1.20;;
26102;SDS011;69760;49.380;8.998;2023-07-30T16:20:21;3.88;;;1.48;;
26102;SDS011;69760;49.380;8.998;2023-07-30T16:22:47;2.58;;;1.30;;
26102;SDS011;69760;49.380;8.998;2023-07-30T16:25:13;2.22;;;1.10;;
26102;SDS011;69760;49.380;8.998;2023-07-30T16:27:38;3.78;;;1.20;;
26102;SDS011;69760;49.380;8.998;2023-07-30T16:30:04;3.25;;;1.08;;
26102;SDS011;69760;49.380;8.998;2023-07-30T16:32:30;4.20;;;1.27;;
26102;SDS011;69760;49.380;8.998;2023-07-30T16:34:56;3.58;;;1.20;;
26102;SDS011;69760;49.380;8.998;2023-07-30T16:37:22;5.20;;;1.23;;
26102;SDS011;69760;49.380;8.998;2023-07-30T16:39:48;3.60;;;1.17;;
26102;SDS011;69760;49.380;8.998;2023-07-30T16:42:13;3.72;;;1.35;;
26102;SDS011;69760;49.380;8.998;2023-07-30T16:44:39;3.97;;;1.30;;
26102;SDS011;69760;49.380;8.998;2023-07-30T16:47:05;2.78;;;1.20;;
26102;SDS011;69760;49.380;8.998;2023-07-30T16:49:30;3.75;;;1.20;;
26102;SDS011;69760;49.380;8.998;2023-07-30T16:51:56;4.43;;;1.38;;
26102;SDS011;69760;49.380;8.998;2023-07-30T16:54:22;2.38;;;0.93;;
26102;SDS011;69760;49.380;8.998;2023-07-30T16:56:47;1.85;;;1.10;;
26102;SDS011;69760;49.380;8.998;2023-07-30T16:59:13;3.45;;;1.30;;
26102;SDS011;69760;49.380;8.998;2023-07-30T17:01:38;2.65;;;1.40;;
26102;SDS011;69760;49.380;8.998;2023-07-30T17:04:04;4.68;;;1.42;;
26102;SDS011;69760;49.380;8.998;2023-07-30T17:06:29;3.25;;;1.40;;
26102;SDS011;69760;49.380;8.998;2023-07-30T17:08:55;5.15;;;1.40;;
26102;SDS011;69760;49.380;8.998;2023-07-30T17:11:21;3.97;;;1.48;;
26102;SDS011;69760;49.380;8.998;2023-07-30T17:13:46;3.72;;;1.38;;
26102;SDS011;69760;49.380;8.998;2023-07-30T17:16:12;3.08;;;1.15;;
26102;SDS011;69760;49.380;8.998;2023-07-30T17:18:38;4.88;;;1.60;;
26102;SDS011;69760;49.380;8.998;2023-07-30T17:21:03;6.30;;;1.38;;
26102;SDS011;69760;49.380;8.998;2023-07-30T17:23:30;4.22;;;1.05;;
26102;SDS011;69760;49.380;8.998;2023-07-30T17:25:57;4.85;;;1.50;;
26102;SDS011;69760;49.380;8.998;2023-07-30T17:28:26;3.90;;;1.20;;
26102;SDS011;69760;49.380;8.998;2023-07-30T17:30:53;4.53;;;1.30;;
26102;SDS011;69760;49.380;8.998;2023-07-30T17:33:20;3.38;;;1.30;;
26102;SDS011;69760;49.380;8.998;2023-07-30T17:35:45;3.20;;;1.42;;
26102;SDS011;69760;49.380;8.998;2023-07-30T17:38:11;4.97;;;1.40;;
26102;SDS011;69760;49.380;8.998;2023-07-30T17:40:37;4.68;;;1.30;;
26102;SDS011;69760;49.380;8.998;2023-07-30T17:43:03;5.00;;;1.50;;
26102;SDS011;69760;49.380;8.998;2023-07-30T17:45:29;5.90;;;1.20;;
26102;SDS011;69760;49.380;8.998;2023-07-30T17:47:55;2.50;;;1.10;;
26102;SDS011;69760;49.380;8.998;2023-07-30T17:50:20;3.85;;;1.30;;
26102;SDS011;69760;49.380;8.998;2023-07-30T17:52:46;7.05;;;1.60;;
26102;SDS011;69760;49.380;8.998;2023-07-30T17:55:11;4.78;;;1.40;;
26102;SDS011;69760;49.380;8.998;2023-07-30T17:57:37;5.07;;;1.40;;
26102;SDS011;69760;49.380;8.998;2023-07-30T18:00:04;2.58;;;1.40;;
26102;SDS011;69760;49.380;8.998;2023-07-30T18:02:31;2.17;;;1.30;;
26102;SDS011;69760;49.380;8.998;2023-07-30T18:04:57;4.95;;;1.40;;
26102;SDS011;69760;49.380;8.998;2023-07-30T18:07:22;5.07;;;1.48;;
26102;SDS011;69760;49.380;8.998;2023-07-30T18:09:48;3.83;;;1.10;;
26102;SDS011;69760;49.380;8.998;2023-07-30T18:12:14;8.02;;;1.50;;
26102;SDS011;69760;49.380;8.998;2023-07-30T18:14:40;4.10;;;1.13;;
26102;SDS011;69760;49.380;8.998;2023-07-30T18:17:05;4.00;;;1.20;;
26102;SDS011;69760;49.380;8.998;2023-07-30T18:19:31;3.42;;;1.30;;
26102;SDS011;69760;49.380;8.998;2023-07-30T18:21:57;3.42;;;1.27;;
26102;SDS011;69760;49.380;8.998;2023-07-30T18:24:23;6.90;;;1.50;;
26102;SDS011;69760;49.380;8.998;2023-07-30T18:26:48;3.58;;;1.35;;
26102;SDS011;69760;49.380;8.998;2023-07-30T18:29:14;4.45;;;1.50;;
26102;SDS011;69760;49.380;8.998;2023-07-30T18:31:42;2.60;;;1.52;;
26102;SDS011;69760;49.380;8.998;2023-07-30T18:34:09;2.50;;;1.30;;
26102;SDS011;69760;49.380;8.998;2023-07-30T18:36:35;6.10;;;1.23;;
26102;SDS011;69760;49.380;8.998;2023-07-30T18:39:00;4.57;;;1.50;;
26102;SDS011;69760;49.380;8.998;2023-07-30T18:41:26;3.83;;;1.48;;
26102;SDS011;69760;49.380;8.998;2023-07-30T18:43:51;5.63;;;1.38;;
26102;SDS011;69760;49.380;8.998;2023-07-30T18:46:17;5.40;;;1.65;;
26102;SDS011;69760;49.380;8.998;2023-07-30T18:48:43;3.70;;;1.33;;
26102;SDS011;69760;49.380;8.998;2023-07-30T18:51:08;4.40;;;1.25;;
26102;SDS011;69760;49.380;8.998;2023-07-30T18:53:34;3.40;;;1.60;;
26102;SDS011;69760;49.380;8.998;2023-07-30T18:56:00;4.82;;;1.48;;
26102;SDS011;69760;49.380;8.998;2023-07-30T18:58:26;2.38;;;1.38;;
26102;SDS011;69760;49.380;8.998;2023-07-30T19:00:52;4.13;;;1.48;;
26102;SDS011;69760;49.380;8.998;2023-07-30T19:03:18;4.95;;;1.40;;
26102;SDS011;69760;49.380;8.998;2023-07-30T19:05:50;4.68;;;1.42;;
26102;SDS011;69760;49.380;8.998;2023-07-30T19:08:16;5.50;;;1.40;;
26102;SDS011;69760;49.380;8.998;2023-07-30T19:10:44;3.53;;;1.30;;
26102;SDS011;69760;49.380;8.998;2023-07-30T19:13:11;4.45;;;1.30;;
26102;SDS011;69760;49.380;8.998;2023-07-30T19:15:37;6.22;;;1.40;;
26102;SDS011;69760;49.380;8.998;2023-07-30T19:18:02;3.83;;;1.40;;
26102;SDS011;69760;49.380;8.998;2023-07-30T19:20:28;4.93;;;1.30;;
26102;SDS011;69760;49.380;8.998;2023-07-30T19:22:53;3.47;;;1.50;;
26102;SDS011;69760;49.380;8.998;2023-07-30T19:25:19;5.57;;;2.17;;
26102;SDS011;69760;49.380;8.998;2023-07-30T19:27:44;5.72;;;2.17;;
26102;SDS011;69760;49.380;8.998;2023-07-30T19:30:11;4.05;;;2.30;;
26102;SDS011;69760;49.380;8.998;2023-07-30T19:32:36;3.65;;;2.08;;
26102;SDS011;69760;49.380;8.998;2023-07-30T19:35:03;3.97;;;1.58;;
26102;SDS011;69760;49.380;8.998;2023-07-30T19:37:29;5.28;;;1.70;;
26102;SDS011;69760;49.380;8.998;2023-07-30T19:39:54;3.38;;;1.38;;
26102;SDS011;69760;49.380;8.998;2023-07-30T19:42:20;3.33;;;1.48;;
26102;SDS011;69760;49.380;8.998;2023-07-30T19:44:46;3.55;;;1.60;;
26102;SDS011;69760;49.380;8.998;2023-07-30T19:47:11;4.88;;;1.30;;
26102;SDS011;69760;49.380;8.998;2023-07-30T19:49:37;5.55;;;1.67;;
26102;SDS011;69760;49.380;8.998;2023-07-30T19:52:03;6.15;;;2.63;;
26102;SDS011;69760;49.380;8.998;2023-07-30T19:54:29;5.25;;;2.80;;
26102;SDS011;69760;49.380;8.998;2023-07-30T19:56:55;5.90;;;5.20;;
26102;SDS011;69760;49.380;8.998;2023-07-30T19:59:21;9.88;;;3.58;;
26102;SDS011;69760;49.380;8.998;2023-07-30T20:01:47;5.43;;;2.80;;
26102;SDS011;69760;49.380;8.998;2023-07-30T20:04:12;3.83;;;2.10;;
26102;SDS011;69760;49.380;8.998;2023-07-30T20:06:38;3.88;;;2.00;;
26102;SDS011;69760;49.380;8.998;2023-07-30T20:09:05;3.55;;;1.63;;
26102;SDS011;69760;49.380;8.998;2023-07-30T20:11:30;3.58;;;1.67;;
26102;SDS011;69760;49.380;8.998;2023-07-30T20:13:56;5.07;;;1.48;;
26102;SDS011;69760;49.380;8.998;2023-07-30T20:16:22;5.95;;;2.10;;
26102;SDS011;69760;49.380;8.998;2023-07-30T20:18:47;2.97;;;1.70;;
26102;SDS011;69760;49.380;8.998;2023-07-30T20:21:13;5.05;;;2.03;;
26102;SDS011;69760;49.380;8.998;2023-07-30T20:23:38;7.22;;;2.97;;
26102;SDS011;69760;49.380;8.998;2023-07-30T20:26:11;6.32;;;3.33;;
26102;SDS011;69760;49.380;8.998;2023-07-30T20:28:37;4.03;;;1.88;;
26102;SDS011;69760;49.380;8.998;2023-07-30T20:31:03;5.40;;;1.65;;
26102;SDS011;69760;49.380;8.998;2023-07-30T20:33:28;4.70;;;1.73;;
26102;SDS011;69760;49.380;8.998;2023-07-30T20:35:54;3.40;;;1.42;;
26102;SDS011;69760;49.380;8.998;2023-07-30T20:38:19;3.60;;;1.55;;
26102;SDS011;69760;49.380;8.998;2023-07-30T20:40:45;4.78;;;1.50;;
26102;SDS011;69760;49.380;8.998;2023-07-30T20:43:10;4.88;;;1.77;;
26102;SDS011;69760;49.380;8.998;2023-07-30T20:45:36;3.65;;;1.50;;
26102;SDS011;69760;49.380;8.998;2023-07-30T20:48:01;3.97;;;1.73;;
26102;SDS011;69760;49.380;8.998;2023-07-30T20:50:27;4.40;;;1.35;;